Flight Track Log - Related Links

Times and Time Zones

All times are in EDT time to prevent confusion due to time zone crossing. See the TYR920 flight status page for this flight to view local times or setup timezone preferences in your user account.

Time Position Orientation Groundspeed Altitude Reporting Facility
EDT Latitude Longitude Course Direction KTS MPH feet Rate Location/Type
Tue 02:28:00 AM 47.8469 13.5271 81° East  Level Estimated
Tue 02:29:00 AM 47.8574 13.6317 82° East  Level Estimated
Tue 02:30:00 AM 47.8677 13.7365 82° East  Level Estimated
Tue 02:31:00 AM 47.8780 13.8412 82° East  Level Estimated
Tue 02:32:00 AM 47.8881 13.9460 82° East  Level Estimated
Tue 02:33:00 AM 47.8982 14.0508 82° East  Level Estimated
Tue 02:34:00 AM 47.9082 14.1557 82° East  Level Estimated
Tue 02:35:00 AM 47.9180 14.2606 82° East  Level Estimated
Tue 02:36:00 AM 47.9278 14.3656 82° East  Level Estimated
Tue 02:37:00 AM 47.9375 14.4706 82° East  Level Estimated
Tue 02:38:00 AM 47.9471 14.5757 82° East  Level Estimated
Tue 02:39:00 AM 47.9566 14.6807 82° East  Level Estimated
Tue 02:40:00 AM 47.9660 14.7858 82° East  Level Estimated
Tue 02:41:00 AM 47.9753 14.8910 82° East  Level Estimated
Tue 02:42:00 AM 47.9845 14.9962 83° East  Level Estimated
Tue 02:43:00 AM 47.9936 15.1014 83° East  Level Estimated
Tue 02:44:00 AM 48.0026 15.2067 83° East  Level Estimated
Tue 02:45:00 AM 48.0115 15.3120 83° East  Level Estimated
Tue 02:46:00 AM 48.0203 15.4173 83° East  Level Estimated
Tue 02:47:00 AM 48.0290 15.5227 83° East  Level Estimated
Tue 02:48:00 AM 48.0376 15.6281 83° East  Level Estimated
Tue 02:49:00 AM 48.0462 15.7336 83° East  Level Estimated
Tue 02:50:00 AM 48.0546 15.8390 83° East  Level Estimated
Tue 02:51:00 AM 48.0629 15.9445 83° East  Level Estimated
Tue 02:52:00 AM 48.0712 16.0501 83° East  Level Estimated
Tue 02:53:00 AM 48.0793 16.1557 83° East  Level Estimated
Tue 02:54:00 AM 48.0873 16.2613 83° East  Level Estimated
Tue 02:55:00 AM 48.0953 16.3669 84° East  Level Estimated
Tue 02:56:00 AM 48.1031 16.4726 84° East  Level Estimated
Tue 02:57:00 AM 48.1103 16.5697 84° East  Level Estimated
Tue 02:58:00 AM 48.1103 16.5697 146° Southeast  Level Estimated
Tue 02:59:00 AM 48.1103 16.5697 146° Southeast  Level Estimated
Tue 03:00:00 AM 48.1103 16.5697 146° Southeast  Level Estimated
Tue 03:01:00 AM 48.1103 16.5697 146° Southeast  Level Estimated
Tue 03:02:00 AM 48.1103 16.5697 146° Southeast  Level Estimated
Tue 03:03:00 AM 48.1103 16.5697 146° Southeast  Level Estimated
Tue 03:04:00 AM 48.1103 16.5697 146° Southeast  Level Estimated

Login

Don't have an account? Register now (free) for customized features, flight alerts, and more!